createdAt,value
2023-03-22T00:00:13.242Z,96.75
2023-03-22T00:02:14.768Z,96.33
2023-03-22T00:04:16.304Z,95.81
2023-03-22T00:06:18.585Z,96.54
2023-03-22T00:08:20.336Z,96.51
2023-03-22T00:10:21.948Z,96.22
2023-03-22T00:12:23.552Z,96.40
2023-03-22T00:14:25.608Z,96.07
2023-03-22T00:16:27.242Z,96.19
2023-03-22T00:18:29.561Z,97.03
2023-03-22T00:20:31.365Z,97.17
2023-03-22T00:22:33.174Z,97.16
2023-03-22T00:24:34.685Z,94.96
2023-03-22T00:26:36.226Z,95.37
2023-03-22T00:28:38.706Z,94.80
2023-03-22T00:30:40.776Z,95.55
2023-03-22T00:32:42.449Z,94.96
2023-03-22T00:34:44.010Z,95.83
2023-03-22T00:36:45.481Z,95.86
2023-03-22T00:38:47.124Z,95.51
2023-03-22T00:40:48.675Z,96.50
2023-03-22T00:42:51.560Z,95.49
2023-03-22T00:44:53.070Z,96.45
2023-03-22T00:46:54.563Z,96.09
2023-03-22T00:48:56.459Z,95.42
2023-03-22T00:50:58.325Z,94.37
2023-03-22T00:53:00.363Z,95.00
2023-03-22T00:55:02.021Z,95.32
2023-03-22T00:57:03.782Z,95.57
2023-03-22T00:59:05.973Z,96.04
2023-03-22T01:01:07.701Z,95.68
2023-03-22T01:03:09.767Z,95.47
2023-03-22T01:05:15.794Z,95.84
2023-03-22T01:07:18.055Z,95.04
2023-03-22T01:09:23.841Z,94.99
2023-03-22T01:11:26.350Z,94.97
2023-03-22T01:13:28.836Z,94.65
2023-03-22T01:15:30.501Z,95.25
2023-03-22T01:17:32.475Z,95.31
2023-03-22T01:19:36.511Z,95.03
2023-03-22T01:21:38.507Z,94.94
2023-03-22T01:23:40.600Z,94.61
2023-03-22T01:25:43.207Z,94.82
2023-03-22T01:27:44.814Z,95.00
2023-03-22T01:29:46.417Z,94.87
2023-03-22T01:31:47.952Z,95.00
2023-03-22T01:33:49.476Z,95.06
2023-03-22T01:35:51.484Z,95.60
2023-03-22T01:37:53.490Z,95.81
2023-03-22T01:39:55.773Z,96.82
2023-03-22T01:41:57.583Z,96.68
2023-03-22T01:44:29.639Z,96.28
2023-03-22T01:46:32.936Z,95.51
2023-03-22T01:48:41.777Z,95.39
2023-03-22T01:50:49.520Z,95.78
2023-03-22T01:52:52.965Z,96.85
2023-03-22T01:55:06.604Z,97.92
2023-03-22T01:57:22.818Z,97.64
2023-03-22T01:59:25.164Z,97.25
2023-03-22T02:01:39.724Z,96.50
2023-03-22T02:04:07.161Z,95.94
2023-03-22T02:06:08.973Z,95.70
2023-03-22T02:08:10.614Z,96.38
2023-03-22T02:10:28.567Z,95.68
2023-03-22T02:12:51.828Z,94.73
2023-03-22T02:15:28.125Z,94.61
2023-03-22T02:17:42.102Z,94.38
2023-03-22T02:20:10.670Z,94.72
2023-03-22T02:22:49.924Z,93.98
2023-03-22T02:25:28.951Z,93.60
2023-03-22T02:28:09.506Z,92.62
2023-03-22T02:30:32.627Z,94.44
2023-03-22T02:32:52.504Z,94.14
2023-03-22T02:35:18.506Z,92.85
2023-03-22T02:37:22.770Z,94.12
2023-03-22T02:39:43.043Z,94.12
2023-03-22T02:42:12.623Z,92.88
2023-03-22T02:44:30.661Z,93.10
2023-03-22T02:46:45.881Z,93.27
2023-03-22T02:48:53.219Z,94.49
2023-03-22T02:51:00.686Z,95.19
2023-03-22T02:53:14.568Z,94.72
2023-03-22T02:55:26.408Z,94.76
2023-03-22T02:57:47.791Z,95.04
2023-03-22T02:59:51.480Z,97.53
2023-03-22T03:01:57.450Z,98.11
2023-03-22T03:04:04.851Z,98.46
2023-03-22T03:06:18.020Z,97.71
2023-03-22T03:08:20.900Z,96.70
2023-03-22T03:10:23.710Z,95.68
2023-03-22T03:12:27.044Z,95.46
2023-03-22T03:14:32.097Z,95.64
2023-03-22T03:16:35.022Z,94.50
2023-03-22T03:18:40.749Z,94.72
2023-03-22T03:20:46.440Z,94.46
2023-03-22T03:23:08.972Z,94.32
2023-03-22T03:25:27.394Z,93.72
2023-03-22T03:27:38.344Z,94.61
2023-03-22T03:30:00.719Z,94.34
2023-03-22T03:32:41.951Z,95.23
2023-03-22T03:34:52.890Z,97.40
2023-03-22T03:37:02.761Z,96.16
2023-03-22T03:39:09.653Z,96.46
2023-03-22T03:41:17.882Z,96.22
2023-03-22T03:43:20.809Z,95.96
2023-03-22T03:45:23.265Z,95.47
2023-03-22T03:47:28.290Z,95.30
2023-03-22T03:49:30.143Z,95.20
2023-03-22T03:51:33.186Z,95.61
2023-03-22T03:53:34.680Z,95.88
2023-03-22T03:55:37.692Z,95.25
2023-03-22T03:57:39.494Z,95.12
2023-03-22T03:59:41.244Z,94.56
2023-03-22T04:01:52.630Z,94.81
2023-03-22T04:03:59.774Z,94.09
2023-03-22T04:06:09.263Z,93.89
2023-03-22T04:08:13.438Z,93.68
2023-03-22T04:10:15.014Z,93.96
2023-03-22T04:12:16.568Z,93.76
2023-03-22T04:14:27.449Z,93.29
2023-03-22T04:16:31.697Z,93.12
2023-03-22T04:18:33.472Z,92.78
2023-03-22T04:20:41.522Z,92.94
2023-03-22T04:22:44.783Z,92.54
2023-03-22T04:24:50.025Z,92.27
2023-03-22T04:26:53.635Z,92.39
2023-03-22T04:28:59.216Z,92.24
2023-03-22T04:31:03.227Z,92.69
2023-03-22T04:33:26.224Z,92.43
2023-03-22T04:35:46.635Z,92.75
2023-03-22T04:37:48.861Z,92.39
2023-03-22T04:39:54.141Z,91.86
2023-03-22T04:42:19.927Z,91.86
2023-03-22T04:44:23.693Z,92.43
2023-03-22T04:46:26.421Z,93.18
2023-03-22T04:48:38.397Z,92.77
2023-03-22T04:50:41.259Z,92.59
2023-03-22T04:52:43.120Z,92.70
2023-03-22T04:54:44.588Z,92.68
2023-03-22T04:56:47.342Z,92.60
2023-03-22T04:58:50.631Z,92.37
2023-03-22T05:00:53.770Z,93.01
2023-03-22T05:02:57.408Z,92.38
2023-03-22T05:05:18.948Z,92.42
2023-03-22T05:07:22.358Z,92.00
2023-03-22T05:09:28.480Z,92.23
2023-03-22T05:11:30.443Z,91.96
2023-03-22T05:13:54.249Z,92.07
2023-03-22T05:15:56.286Z,91.87
2023-03-22T05:18:04.910Z,92.24
2023-03-22T05:20:09.834Z,92.40
2023-03-22T05:22:13.986Z,92.20
2023-03-22T05:24:20.131Z,92.58
2023-03-22T05:26:26.214Z,92.66
2023-03-22T05:28:28.743Z,92.08
2023-03-22T05:30:54.764Z,91.86
2023-03-22T05:33:05.781Z,92.31
2023-03-22T05:35:13.107Z,91.85
2023-03-22T05:37:21.008Z,91.36
2023-03-22T05:39:26.450Z,91.69
2023-03-22T05:41:28.044Z,91.73
2023-03-22T05:43:29.649Z,91.57
2023-03-22T05:45:32.481Z,91.54
2023-03-22T05:47:44.556Z,91.21
2023-03-22T05:49:48.789Z,90.85
2023-03-22T05:51:50.490Z,91.40
2023-03-22T05:53:53.514Z,91.17
2023-03-22T05:56:02.712Z,92.61
2023-03-22T05:58:08.410Z,92.52
2023-03-22T06:00:16.215Z,91.69
2023-03-22T06:02:38.347Z,91.59
2023-03-22T06:04:41.579Z,91.97
2023-03-22T06:06:46.794Z,92.22
2023-03-22T06:09:16.033Z,91.86
2023-03-22T06:11:19.258Z,92.20
2023-03-22T06:13:21.879Z,91.03
2023-03-22T06:15:23.998Z,90.29
2023-03-22T06:17:38.756Z,90.34
2023-03-22T06:19:43.139Z,90.39
2023-03-22T06:21:46.262Z,90.85
2023-03-22T06:23:49.789Z,90.59
2023-03-22T06:25:51.567Z,89.69
2023-03-22T06:27:53.129Z,89.38
2023-03-22T06:29:55.754Z,89.50
2023-03-22T06:32:00.611Z,88.94
2023-03-22T06:34:02.711Z,89.33
2023-03-22T06:36:10.862Z,88.59
2023-03-22T06:38:25.202Z,88.83
2023-03-22T06:40:27.839Z,88.67
2023-03-22T06:42:30.900Z,89.15
2023-03-22T06:44:45.091Z,88.62
2023-03-22T06:46:58.797Z,87.97
2023-03-22T06:49:12.039Z,88.01
2023-03-22T06:51:13.721Z,89.12
2023-03-22T06:53:15.263Z,87.49
2023-03-22T06:55:18.447Z,87.72
2023-03-22T06:57:20.112Z,86.38
2023-03-22T06:59:21.699Z,85.14
2023-03-22T07:01:24.498Z,83.97
2023-03-22T07:03:26.119Z,87.22
2023-03-22T07:05:39.110Z,85.84
2023-03-22T07:07:40.670Z,85.42
2023-03-22T07:09:42.278Z,85.90
2023-03-22T07:11:43.877Z,81.76
2023-03-22T07:13:45.504Z,84.19
2023-03-22T07:16:02.199Z,79.47
2023-03-22T07:18:10.044Z,80.90
2023-03-22T07:20:11.829Z,80.88
2023-03-22T07:22:13.361Z,80.78
2023-03-22T07:24:15.230Z,84.54
2023-03-22T07:26:17.069Z,83.70
2023-03-22T07:28:22.286Z,82.27
2023-03-22T07:30:23.825Z,82.55
2023-03-22T07:32:26.078Z,82.27
2023-03-22T07:34:37.159Z,81.79
2023-03-22T07:36:42.999Z,80.51
2023-03-22T07:38:46.361Z,80.41
2023-03-22T07:40:54.611Z,83.03
2023-03-22T07:42:59.333Z,80.25
2023-03-22T07:45:20.676Z,79.73
2023-03-22T07:47:42.898Z,79.92
2023-03-22T07:50:08.084Z,83.09
2023-03-22T07:52:11.304Z,81.75
2023-03-22T07:54:22.673Z,81.75
2023-03-22T07:56:32.399Z,81.68
2023-03-22T07:58:34.629Z,80.03
2023-03-22T08:00:36.264Z,79.66
2023-03-22T08:03:13.241Z,80.54
2023-03-22T08:05:30.276Z,80.20
2023-03-22T08:07:36.173Z,79.67
2023-03-22T08:09:38.461Z,80.08
2023-03-22T08:11:40.578Z,82.17
2023-03-22T08:13:42.239Z,80.31
2023-03-22T08:15:45.688Z,80.48
2023-03-22T08:17:49.692Z,81.63
2023-03-22T08:19:59.491Z,80.50
2023-03-22T08:22:17.490Z,80.00
2023-03-22T08:24:52.294Z,80.24
2023-03-22T08:27:06.695Z,81.19
2023-03-22T08:29:19.774Z,80.35
2023-03-22T08:31:23.310Z,80.08
2023-03-22T08:33:25.315Z,80.24
2023-03-22T08:35:27.531Z,81.83
2023-03-22T08:37:29.062Z,81.87
2023-03-22T08:39:30.899Z,79.48
2023-03-22T08:41:49.387Z,78.60
2023-03-22T08:43:52.061Z,77.39
2023-03-22T08:45:53.934Z,76.61
2023-03-22T08:47:57.341Z,76.08
2023-03-22T08:50:00.146Z,75.07
2023-03-22T08:52:13.851Z,76.69
2023-03-22T08:54:38.254Z,76.93
2023-03-22T08:56:39.913Z,73.22
2023-03-22T08:58:53.443Z,72.08
2023-03-22T09:01:12.110Z,70.03
2023-03-22T09:03:19.283Z,69.29
2023-03-22T09:05:20.901Z,69.43
2023-03-22T09:07:22.550Z,68.75
2023-03-22T09:09:33.371Z,68.78
2023-03-22T09:11:37.185Z,69.27
2023-03-22T09:13:39.035Z,67.01
2023-03-22T09:15:40.907Z,67.96
2023-03-22T09:17:50.859Z,67.88
2023-03-22T09:20:02.731Z,66.07
2023-03-22T09:22:11.559Z,65.82
2023-03-22T09:24:20.507Z,64.50
2023-03-22T09:26:27.017Z,66.40
2023-03-22T09:28:30.328Z,65.95
2023-03-22T09:30:34.009Z,65.98
2023-03-22T09:32:35.830Z,66.65
2023-03-22T09:34:39.022Z,66.37
2023-03-22T09:36:41.099Z,66.97
2023-03-22T09:38:42.721Z,65.67
2023-03-22T09:41:00.745Z,66.13
2023-03-22T09:43:09.000Z,64.76
2023-03-22T09:45:38.530Z,66.97
2023-03-22T09:47:46.568Z,67.57
2023-03-22T09:49:55.762Z,69.33
2023-03-22T09:51:58.583Z,66.74
2023-03-22T09:54:00.299Z,65.28
2023-03-22T09:56:24.786Z,67.31
2023-03-22T09:58:50.245Z,65.75
2023-03-22T10:01:02.806Z,67.02
2023-03-22T10:03:39.214Z,64.48
2023-03-22T10:05:49.890Z,67.02
2023-03-22T10:07:59.334Z,63.09
2023-03-22T10:10:12.921Z,63.61
2023-03-22T10:12:25.438Z,62.64
2023-03-22T10:14:33.348Z,61.70
2023-03-22T10:16:35.598Z,62.75
2023-03-22T10:18:40.674Z,62.18
2023-03-22T10:20:48.486Z,61.32
2023-03-22T10:22:53.325Z,61.22
2023-03-22T10:24:56.091Z,61.30
2023-03-22T10:26:57.614Z,61.76
2023-03-22T10:29:06.901Z,62.30
2023-03-22T10:31:17.348Z,62.07
2023-03-22T10:33:35.166Z,61.57
2023-03-22T10:35:37.888Z,58.69
2023-03-22T10:37:40.900Z,61.32
2023-03-22T10:39:49.811Z,59.78
2023-03-22T10:41:56.376Z,57.49
2023-03-22T10:44:02.589Z,58.27
2023-03-22T10:46:07.615Z,61.08
2023-03-22T10:48:27.102Z,57.48
2023-03-22T10:50:44.208Z,57.34
2023-03-22T10:52:52.559Z,59.75
2023-03-22T10:54:54.119Z,58.59
2023-03-22T10:56:56.426Z,59.44
2023-03-22T10:58:58.085Z,61.87
2023-03-22T11:01:05.903Z,60.46
2023-03-22T11:03:07.550Z,58.61
2023-03-22T11:05:23.608Z,55.89
2023-03-22T11:07:42.998Z,56.08
2023-03-22T11:09:44.541Z,56.75
2023-03-22T11:11:55.314Z,60.21
2023-03-22T11:14:06.498Z,58.56
2023-03-22T11:16:08.389Z,59.00
2023-03-22T11:18:16.082Z,59.08
2023-03-22T11:20:19.562Z,58.71
2023-03-22T11:22:38.907Z,58.51
2023-03-22T11:24:40.774Z,58.52
2023-03-22T11:26:44.802Z,59.64
2023-03-22T11:28:49.836Z,58.36
2023-03-22T11:31:02.622Z,58.65
2023-03-22T11:33:17.852Z,56.73
2023-03-22T11:35:28.243Z,56.54
2023-03-22T11:37:29.744Z,57.49
2023-03-22T11:39:31.458Z,56.16
2023-03-22T11:41:37.977Z,56.38
2023-03-22T11:43:44.001Z,53.86
2023-03-22T11:45:48.074Z,53.60
2023-03-22T11:47:49.875Z,56.42
2023-03-22T11:49:54.593Z,55.34
2023-03-22T11:51:56.691Z,55.13
2023-03-22T11:54:16.676Z,55.81
2023-03-22T11:56:25.756Z,58.00
2023-03-22T11:58:29.188Z,55.15
2023-03-22T12:00:34.756Z,56.11
2023-03-22T12:03:00.370Z,57.48
2023-03-22T12:05:15.411Z,56.41
2023-03-22T12:07:21.437Z,56.65
2023-03-22T12:09:23.027Z,55.25
2023-03-22T12:11:41.204Z,54.33
2023-03-22T12:13:51.352Z,53.78
2023-03-22T12:15:57.465Z,50.70
2023-03-22T12:18:10.688Z,50.34
2023-03-22T12:20:19.316Z,49.18
2023-03-22T12:22:31.110Z,48.24
2023-03-22T12:24:32.836Z,46.86
2023-03-22T12:26:35.532Z,46.57
2023-03-22T12:28:56.243Z,43.59
2023-03-22T12:30:59.226Z,44.59
2023-03-22T12:33:06.415Z,44.16
2023-03-22T12:35:19.685Z,46.28
2023-03-22T12:37:27.328Z,41.76
2023-03-22T12:39:35.440Z,43.97
2023-03-22T12:41:45.707Z,41.84
2023-03-22T12:43:54.126Z,41.95
2023-03-22T12:46:00.256Z,42.48
2023-03-22T12:48:31.114Z,41.47
2023-03-22T12:50:42.262Z,43.20
2023-03-22T12:52:47.675Z,44.54
2023-03-22T12:54:51.083Z,45.32
2023-03-22T12:56:53.865Z,45.38
2023-03-22T12:59:01.418Z,44.08
2023-03-22T13:01:25.109Z,39.34
2023-03-22T13:03:36.761Z,38.35
2023-03-22T13:05:41.116Z,40.88
2023-03-22T13:07:45.809Z,40.14
2023-03-22T13:09:49.415Z,40.37
2023-03-22T13:12:19.029Z,42.93
2023-03-22T13:14:57.998Z,43.00
2023-03-22T13:17:00.917Z,42.76
2023-03-22T13:19:17.272Z,42.53
2023-03-22T13:21:27.341Z,41.11
2023-03-22T13:23:28.895Z,41.13
2023-03-22T13:25:36.479Z,40.24
2023-03-22T13:27:44.592Z,41.50
2023-03-22T13:29:53.821Z,41.03
2023-03-22T13:31:58.507Z,41.27
2023-03-22T13:34:02.610Z,39.76
2023-03-22T13:36:25.058Z,41.27
2023-03-22T13:38:34.815Z,39.44
2023-03-22T13:40:46.708Z,40.90
2023-03-22T13:42:48.278Z,40.66
2023-03-22T13:44:58.437Z,40.63
2023-03-22T13:47:01.476Z,41.23
2023-03-22T13:49:03.021Z,40.27
2023-03-22T13:51:12.112Z,39.43
2023-03-22T13:53:21.717Z,38.62
2023-03-22T13:56:04.667Z,38.93
2023-03-22T13:58:11.356Z,38.26
2023-03-22T14:00:32.104Z,37.41
2023-03-22T14:02:38.148Z,37.29
2023-03-22T14:04:47.443Z,37.94
2023-03-22T14:06:54.928Z,39.34
2023-03-22T14:09:13.404Z,39.74
2023-03-22T14:11:27.185Z,40.41
2023-03-22T14:14:07.606Z,40.09
2023-03-22T14:16:15.655Z,42.11
2023-03-22T14:18:28.125Z,38.68
2023-03-22T14:20:36.035Z,36.36
